Terminal Aerodrome Forecast
Issued by NWS

Home | Current Version | Previous Version | Text Only | Print | Product List | Glossary Off
Versions: 1 2 3 4 5 6 7 8 9 10 11 12 13 14 15 16 17 18 19 20

000
FTUS43 KFGF 261721
TAFBJI
TAF
KBJI 261721Z 2618/2718 19007KT P6SM FEW250
     FM270200 17004KT P6SM FEW250
     FM271500 16010KT P6SM SKC=

USA.gov is the U.S. government's official web portal to all federal, state and local government web resources and services.